QFA442 YMML-YSSY
Flight info
| Callsign | QFA442 |
|---|---|
| Flight time | 1h 7m |
| Altitude | 39000 |
| Route | ML H129 DOSEL Y59 RIVET |
| Aircraft | B789/H-SDE1E2E3FGHIJ2J3J4J5M1RWXY/LB1D1 |
Departure
| Time | 2026-04-21 00:11 |
|---|---|
| Airport | Melbourne Airport (YMML) |
Arrival
| Time | 2026-04-21 01:18 |
|---|---|
| Airport | Sydney Kingsford Smith International Airport (YSSY) |
| Time | Latitude | Longitude | Altitude | Speed | Heading |
|---|---|---|---|---|---|
| 2026-04-20 23:50 | -37.67276 | 144.84510 | 391 ft | 0 kts | 172° |
| 2026-04-20 23:58 | -37.67265 | 144.84508 | 393 ft | 3 kts | 172° |
| 2026-04-20 23:59 | -37.67247 | 144.84506 | 393 ft | 3 kts | 185° |
| 2026-04-20 23:59 | -37.67230 | 144.84510 | 390 ft | 3 kts | 213° |
| 2026-04-20 23:59 | -37.67215 | 144.84523 | 391 ft | 3 kts | 229° |
| 2026-04-20 23:59 | -37.67208 | 144.84543 | 390 ft | 3 kts | 268° |
| 2026-04-21 00:00 | -37.67207 | 144.84556 | 391 ft | 0 kts | 263° |
| 2026-04-21 00:05 | -37.67207 | 144.84554 | 396 ft | 1 kts | 263° |
| 2026-04-21 00:05 | -37.67209 | 144.84522 | 393 ft | 5 kts | 268° |
| 2026-04-21 00:05 | -37.67201 | 144.84466 | 390 ft | 8 kts | 281° |
| 2026-04-21 00:06 | -37.67202 | 144.84385 | 393 ft | 11 kts | 262° |
| 2026-04-21 00:06 | -37.67188 | 144.84288 | 392 ft | 11 kts | 310° |
| 2026-04-21 00:06 | -37.67127 | 144.84258 | 392 ft | 9 kts | 348° |
| 2026-04-21 00:06 | -37.67073 | 144.84246 | 392 ft | 7 kts | 351° |
| 2026-04-21 00:07 | -37.67025 | 144.84237 | 396 ft | 6 kts | 352° |
| 2026-04-21 00:07 | -37.66977 | 144.84229 | 398 ft | 9 kts | 352° |
| 2026-04-21 00:07 | -37.66900 | 144.84214 | 401 ft | 13 kts | 351° |
| 2026-04-21 00:07 | -37.66804 | 144.84196 | 405 ft | 13 kts | 351° |
| 2026-04-21 00:08 | -37.66710 | 144.84178 | 408 ft | 15 kts | 352° |
| 2026-04-21 00:08 | -37.66601 | 144.84176 | 405 ft | 16 kts | 20° |
| 2026-04-21 00:08 | -37.66533 | 144.84282 | 411 ft | 17 kts | 75° |
| 2026-04-21 00:08 | -37.66508 | 144.84452 | 412 ft | 22 kts | 82° |
| 2026-04-21 00:09 | -37.66485 | 144.84669 | 418 ft | 27 kts | 82° |
| 2026-04-21 00:09 | -37.66461 | 144.84866 | 413 ft | 20 kts | 78° |
| 2026-04-21 00:09 | -37.66371 | 144.84933 | 416 ft | 3 kts | 329° |
| 2026-04-21 00:09 | -37.66366 | 144.84928 | 416 ft | 0 kts | 322° |
| 2026-04-21 00:10 | -37.66344 | 144.84906 | 412 ft | 11 kts | 322° |
| 2026-04-21 00:10 | -37.66262 | 144.84819 | 413 ft | 18 kts | 314° |
| 2026-04-21 00:10 | -37.66219 | 144.84686 | 414 ft | 16 kts | 275° |
| 2026-04-21 00:11 | -37.66203 | 144.84413 | 416 ft | 63 kts | 274° |
| 2026-04-21 00:11 | -37.66144 | 144.83440 | 413 ft | 156 kts | 274° |
| 2026-04-21 00:11 | -37.66086 | 144.81874 | 898 ft | 189 kts | 276° |
| 2026-04-21 00:11 | -37.65963 | 144.80120 | 1614 ft | 215 kts | 277° |
| 2026-04-21 00:12 | -37.65822 | 144.78097 | 2262 ft | 242 kts | 277° |
| 2026-04-21 00:12 | -37.65700 | 144.75931 | 2895 ft | 250 kts | 276° |
| 2026-04-21 00:12 | -37.65579 | 144.73707 | 3553 ft | 257 kts | 276° |
| 2026-04-21 00:12 | -37.65446 | 144.71453 | 4199 ft | 259 kts | 275° |
| 2026-04-21 00:13 | -37.65309 | 144.69182 | 5068 ft | 250 kts | 275° |
| 2026-04-21 00:13 | -37.64874 | 144.67006 | 5656 ft | 270 kts | 298° |
| 2026-04-21 00:13 | -37.63571 | 144.65219 | 6746 ft | 276 kts | 328° |
| 2026-04-21 00:13 | -37.61965 | 144.64407 | 8182 ft | 232 kts | 341° |
| 2026-04-21 00:14 | -37.60358 | 144.63762 | 9050 ft | 253 kts | 341° |
| 2026-04-21 00:14 | -37.58609 | 144.63103 | 9954 ft | 274 kts | 342° |
| 2026-04-21 00:14 | -37.56702 | 144.62420 | 10771 ft | 296 kts | 346° |
| 2026-04-21 00:14 | -37.54575 | 144.62545 | 11492 ft | 323 kts | 17° |
| 2026-04-21 00:15 | -37.52586 | 144.64008 | 12227 ft | 345 kts | 45° |
| 2026-04-21 00:15 | -37.50977 | 144.66378 | 12900 ft | 368 kts | 54° |
| 2026-04-21 00:15 | -37.49458 | 144.69111 | 13504 ft | 392 kts | 57° |
| 2026-04-21 00:15 | -37.47889 | 144.71929 | 14437 ft | 401 kts | 56° |
| 2026-04-21 00:16 | -37.46398 | 144.74912 | 15434 ft | 406 kts | 60° |
| 2026-04-21 00:16 | -37.44937 | 144.77996 | 16431 ft | 413 kts | 61° |
| 2026-04-21 00:16 | -37.43504 | 144.81148 | 17389 ft | 419 kts | 62° |
| 2026-04-21 00:16 | -37.42055 | 144.84366 | 18326 ft | 426 kts | 62° |
| 2026-04-21 00:17 | -37.40541 | 144.87662 | 19175 ft | 432 kts | 62° |
| 2026-04-21 00:17 | -37.39041 | 144.90894 | 20024 ft | 436 kts | 62° |
| 2026-04-21 00:17 | -37.37512 | 144.94213 | 20835 ft | 441 kts | 62° |
| 2026-04-21 00:17 | -37.35973 | 144.97570 | 21621 ft | 446 kts | 62° |
| 2026-04-21 00:18 | -37.34412 | 145.00961 | 22399 ft | 450 kts | 61° |
| 2026-04-21 00:18 | -37.32830 | 145.04380 | 23125 ft | 455 kts | 61° |
| 2026-04-21 00:18 | -37.31232 | 145.07836 | 23844 ft | 459 kts | 61° |
| 2026-04-21 00:18 | -37.29623 | 145.11319 | 24457 ft | 464 kts | 61° |
| 2026-04-21 00:19 | -37.27997 | 145.14833 | 25034 ft | 468 kts | 61° |
| 2026-04-21 00:19 | -37.26355 | 145.18375 | 25589 ft | 472 kts | 61° |
| 2026-04-21 00:19 | -37.24697 | 145.21947 | 26109 ft | 476 kts | 61° |
| 2026-04-21 00:19 | -37.23022 | 145.25553 | 26640 ft | 480 kts | 61° |
| 2026-04-21 00:20 | -37.21336 | 145.29179 | 27158 ft | 483 kts | 60° |
| 2026-04-21 00:20 | -37.19633 | 145.32838 | 27673 ft | 487 kts | 60° |
| 2026-04-21 00:20 | -37.17915 | 145.36524 | 28128 ft | 491 kts | 60° |
| 2026-04-21 00:20 | -37.16138 | 145.40199 | 28584 ft | 496 kts | 56° |
| 2026-04-21 00:21 | -37.14124 | 145.43731 | 29016 ft | 500 kts | 55° |
| 2026-04-21 00:21 | -37.12077 | 145.47271 | 29462 ft | 503 kts | 54° |
| 2026-04-21 00:21 | -37.10025 | 145.50832 | 29894 ft | 507 kts | 55° |
| 2026-04-21 00:21 | -37.07964 | 145.54437 | 30319 ft | 510 kts | 55° |
| 2026-04-21 00:22 | -37.05887 | 145.58060 | 30670 ft | 514 kts | 55° |
| 2026-04-21 00:22 | -37.03792 | 145.61690 | 31010 ft | 517 kts | 54° |
| 2026-04-21 00:22 | -37.01678 | 145.65352 | 31316 ft | 520 kts | 55° |
| 2026-04-21 00:22 | -36.99561 | 145.69025 | 31632 ft | 523 kts | 55° |
| 2026-04-21 00:23 | -36.97433 | 145.72714 | 32084 ft | 522 kts | 55° |
| 2026-04-21 00:23 | -36.95305 | 145.76393 | 32537 ft | 522 kts | 55° |
| 2026-04-21 00:23 | -36.93178 | 145.80064 | 33004 ft | 522 kts | 55° |
| 2026-04-21 00:23 | -36.91048 | 145.83740 | 33461 ft | 521 kts | 55° |
| 2026-04-21 00:24 | -36.88925 | 145.87402 | 33955 ft | 520 kts | 55° |
| 2026-04-21 00:24 | -36.86800 | 145.91063 | 34408 ft | 520 kts | 54° |
| 2026-04-21 00:24 | -36.84679 | 145.94710 | 34791 ft | 520 kts | 54° |
| 2026-04-21 00:24 | -36.82553 | 145.98362 | 35199 ft | 520 kts | 54° |
| 2026-04-21 00:25 | -36.80429 | 146.02008 | 35617 ft | 519 kts | 55° |
| 2026-04-21 00:25 | -36.78306 | 146.05650 | 36005 ft | 519 kts | 55° |
| 2026-04-21 00:25 | -36.76181 | 146.09289 | 36409 ft | 518 kts | 55° |
| 2026-04-21 00:25 | -36.74064 | 146.12911 | 36799 ft | 518 kts | 55° |
| 2026-04-21 00:26 | -36.71942 | 146.16538 | 37210 ft | 517 kts | 55° |
| 2026-04-21 00:26 | -36.69825 | 146.20153 | 37589 ft | 517 kts | 55° |
| 2026-04-21 00:26 | -36.67732 | 146.23723 | 37969 ft | 516 kts | 55° |
| 2026-04-21 00:26 | -36.65619 | 146.27322 | 38373 ft | 515 kts | 55° |
| 2026-04-21 00:27 | -36.63474 | 146.30973 | 38776 ft | 515 kts | 55° |
| 2026-04-21 00:27 | -36.61388 | 146.34519 | 39143 ft | 514 kts | 55° |
| 2026-04-21 00:27 | -36.59277 | 146.38104 | 39402 ft | 515 kts | 55° |
| 2026-04-21 00:28 | -36.55022 | 146.45318 | 39392 ft | 514 kts | 55° |
| 2026-04-21 00:28 | -36.50815 | 146.52437 | 39400 ft | 509 kts | 55° |
| 2026-04-21 00:29 | -36.46617 | 146.59525 | 39401 ft | 509 kts | 55° |
| 2026-04-21 00:29 | -36.42422 | 146.66593 | 39400 ft | 509 kts | 54° |
| 2026-04-21 00:30 | -36.38228 | 146.73645 | 39401 ft | 509 kts | 54° |
| 2026-04-21 00:30 | -36.34001 | 146.80739 | 39401 ft | 509 kts | 54° |
| 2026-04-21 00:31 | -36.29784 | 146.87801 | 39401 ft | 510 kts | 54° |
| 2026-04-21 00:31 | -36.25561 | 146.94858 | 39405 ft | 510 kts | 54° |
| 2026-04-21 00:32 | -36.21332 | 147.01909 | 39409 ft | 510 kts | 54° |
| 2026-04-21 00:32 | -36.17096 | 147.08959 | 39410 ft | 510 kts | 54° |
| 2026-04-21 00:33 | -36.12854 | 147.16004 | 39414 ft | 510 kts | 54° |
| 2026-04-21 00:33 | -36.08609 | 147.23039 | 39414 ft | 510 kts | 54° |
| 2026-04-21 00:34 | -36.04364 | 147.30059 | 39412 ft | 510 kts | 54° |
| 2026-04-21 00:34 | -36.00111 | 147.37078 | 39413 ft | 510 kts | 54° |
| 2026-04-21 00:35 | -35.95858 | 147.44083 | 39411 ft | 510 kts | 54° |
| 2026-04-21 00:35 | -35.91602 | 147.51079 | 39413 ft | 510 kts | 54° |
| 2026-04-21 00:36 | -35.87337 | 147.58076 | 39412 ft | 510 kts | 54° |
| 2026-04-21 00:36 | -35.83067 | 147.65066 | 39413 ft | 510 kts | 54° |
| 2026-04-21 00:37 | -35.78794 | 147.72046 | 39409 ft | 510 kts | 54° |
| 2026-04-21 00:37 | -35.74551 | 147.78965 | 39412 ft | 510 kts | 54° |
| 2026-04-21 00:38 | -35.70273 | 147.85926 | 39410 ft | 509 kts | 54° |
| 2026-04-21 00:38 | -35.65996 | 147.92870 | 39410 ft | 509 kts | 54° |
| 2026-04-21 00:39 | -35.61717 | 147.99806 | 39408 ft | 509 kts | 54° |
| 2026-04-21 00:39 | -35.57436 | 148.06730 | 39408 ft | 509 kts | 54° |
| 2026-04-21 00:40 | -35.53148 | 148.13651 | 39403 ft | 509 kts | 54° |
| 2026-04-21 00:40 | -35.48864 | 148.20553 | 39409 ft | 508 kts | 54° |
| 2026-04-21 00:41 | -35.44570 | 148.27456 | 39407 ft | 509 kts | 54° |
| 2026-04-21 00:41 | -35.40270 | 148.34355 | 39409 ft | 509 kts | 54° |
| 2026-04-21 00:42 | -35.35973 | 148.41235 | 39411 ft | 509 kts | 54° |
| 2026-04-21 00:42 | -35.31662 | 148.48126 | 39414 ft | 509 kts | 54° |
| 2026-04-21 00:43 | -35.27346 | 148.55009 | 39416 ft | 509 kts | 54° |
| 2026-04-21 00:43 | -35.23026 | 148.61887 | 39419 ft | 509 kts | 54° |
| 2026-04-21 00:44 | -35.18705 | 148.68751 | 39429 ft | 509 kts | 54° |
| 2026-04-21 00:44 | -35.14384 | 148.75602 | 39427 ft | 509 kts | 54° |
| 2026-04-21 00:45 | -35.07889 | 148.85876 | 39435 ft | 509 kts | 54° |
| 2026-04-21 00:45 | -35.03555 | 148.92714 | 39435 ft | 509 kts | 54° |
| 2026-04-21 00:46 | -34.99214 | 148.99551 | 39430 ft | 509 kts | 54° |
| 2026-04-21 00:46 | -34.94872 | 149.06376 | 39435 ft | 510 kts | 54° |
| 2026-04-21 00:47 | -34.90524 | 149.13196 | 39429 ft | 510 kts | 54° |
| 2026-04-21 00:47 | -34.86171 | 149.20013 | 39436 ft | 509 kts | 54° |
| 2026-04-21 00:48 | -34.81818 | 149.26816 | 39431 ft | 510 kts | 54° |
| 2026-04-21 00:48 | -34.77458 | 149.33615 | 39416 ft | 510 kts | 54° |
| 2026-04-21 00:49 | -34.73913 | 149.39322 | 39430 ft | 507 kts | 62° |
| 2026-04-21 00:49 | -34.70065 | 149.48021 | 39418 ft | 493 kts | 65° |
| 2026-04-21 00:50 | -34.67429 | 149.54087 | 39397 ft | 477 kts | 65° |
| 2026-04-21 00:50 | -34.64369 | 149.61069 | 39346 ft | 460 kts | 65° |
| 2026-04-21 00:51 | -34.62887 | 149.64459 | 39293 ft | 446 kts | 65° |
| 2026-04-21 00:51 | -34.61460 | 149.67714 | 39230 ft | 428 kts | 65° |
| 2026-04-21 00:51 | -34.60087 | 149.70842 | 39161 ft | 411 kts | 65° |
| 2026-04-21 00:51 | -34.58765 | 149.73854 | 39067 ft | 397 kts | 65° |
| 2026-04-21 00:52 | -34.57479 | 149.76785 | 38598 ft | 393 kts | 66° |
| 2026-04-21 00:52 | -34.56192 | 149.79721 | 38303 ft | 394 kts | 66° |
| 2026-04-21 00:52 | -34.54904 | 149.82643 | 38146 ft | 393 kts | 66° |
| 2026-04-21 00:52 | -34.53615 | 149.85567 | 37938 ft | 393 kts | 66° |
| 2026-04-21 00:53 | -34.52329 | 149.88484 | 37745 ft | 393 kts | 66° |
| 2026-04-21 00:53 | -34.51041 | 149.91404 | 37565 ft | 393 kts | 66° |
| 2026-04-21 00:53 | -34.49750 | 149.94328 | 37365 ft | 393 kts | 66° |
| 2026-04-21 00:53 | -34.48460 | 149.97244 | 37177 ft | 393 kts | 66° |
| 2026-04-21 00:54 | -34.47169 | 150.00162 | 36976 ft | 393 kts | 66° |
| 2026-04-21 00:54 | -34.45857 | 150.03129 | 36474 ft | 407 kts | 66° |
| 2026-04-21 00:54 | -34.44502 | 150.06195 | 35866 ft | 417 kts | 65° |
| 2026-04-21 00:54 | -34.43116 | 150.09311 | 35288 ft | 422 kts | 65° |
| 2026-04-21 00:55 | -34.41717 | 150.12454 | 34729 ft | 426 kts | 66° |
| 2026-04-21 00:55 | -34.40334 | 150.15566 | 34056 ft | 425 kts | 66° |
| 2026-04-21 00:55 | -34.38933 | 150.18718 | 33321 ft | 424 kts | 66° |
| 2026-04-21 00:55 | -34.37537 | 150.21852 | 32609 ft | 422 kts | 66° |
| 2026-04-21 00:56 | -34.36146 | 150.24972 | 31905 ft | 419 kts | 66° |
| 2026-04-21 00:56 | -34.34776 | 150.28039 | 31115 ft | 408 kts | 66° |
| 2026-04-21 00:56 | -34.33442 | 150.31026 | 30290 ft | 399 kts | 66° |
| 2026-04-21 00:56 | -34.32139 | 150.33945 | 29371 ft | 391 kts | 66° |
| 2026-04-21 00:57 | -34.30859 | 150.36807 | 28481 ft | 383 kts | 66° |
| 2026-04-21 00:57 | -34.29603 | 150.39612 | 27602 ft | 376 kts | 66° |
| 2026-04-21 00:57 | -34.28369 | 150.42367 | 26761 ft | 369 kts | 66° |
| 2026-04-21 00:57 | -34.27156 | 150.45078 | 25899 ft | 364 kts | 66° |
| 2026-04-21 00:58 | -34.25961 | 150.47753 | 25071 ft | 360 kts | 66° |
| 2026-04-21 00:58 | -34.24779 | 150.50402 | 24216 ft | 357 kts | 66° |
| 2026-04-21 00:58 | -34.23604 | 150.53029 | 23217 ft | 354 kts | 66° |
| 2026-04-21 00:58 | -34.22438 | 150.55631 | 22216 ft | 351 kts | 66° |
| 2026-04-21 00:59 | -34.21281 | 150.58210 | 21248 ft | 347 kts | 66° |
| 2026-04-21 00:59 | -34.20139 | 150.60756 | 20307 ft | 343 kts | 65° |
| 2026-04-21 00:59 | -34.19073 | 150.63298 | 19393 ft | 336 kts | 70° |
| 2026-04-21 00:59 | -34.18164 | 150.65872 | 18485 ft | 330 kts | 71° |
| 2026-04-21 01:00 | -34.17319 | 150.68431 | 17482 ft | 326 kts | 72° |
| 2026-04-21 01:00 | -34.16505 | 150.70968 | 16497 ft | 321 kts | 72° |
| 2026-04-21 01:00 | -34.15712 | 150.73466 | 15545 ft | 317 kts | 72° |
| 2026-04-21 01:00 | -34.14935 | 150.75931 | 14657 ft | 311 kts | 72° |
| 2026-04-21 01:01 | -34.14171 | 150.78362 | 13732 ft | 308 kts | 72° |
| 2026-04-21 01:01 | -34.13419 | 150.80760 | 12757 ft | 303 kts | 72° |
| 2026-04-21 01:01 | -34.12679 | 150.83121 | 11813 ft | 298 kts | 73° |
| 2026-04-21 01:01 | -34.11953 | 150.85447 | 10898 ft | 295 kts | 72° |
| 2026-04-21 01:02 | -34.11266 | 150.87651 | 10021 ft | 291 kts | 71° |
| 2026-04-21 01:02 | -34.10119 | 150.89623 | 9133 ft | 295 kts | 37° |
| 2026-04-21 01:02 | -34.08205 | 150.90513 | 8734 ft | 300 kts | 11° |
| 2026-04-21 01:02 | -34.06144 | 150.90771 | 8325 ft | 298 kts | 5° |
| 2026-04-21 01:03 | -34.04086 | 150.90881 | 8040 ft | 294 kts | 3° |
| 2026-04-21 01:03 | -34.02036 | 150.90956 | 7810 ft | 294 kts | 3° |
| 2026-04-21 01:03 | -33.99991 | 150.91022 | 7584 ft | 293 kts | 2° |
| 2026-04-21 01:03 | -33.97957 | 150.91088 | 7355 ft | 293 kts | 3° |
| 2026-04-21 01:04 | -33.95926 | 150.91152 | 7121 ft | 292 kts | 3° |
| 2026-04-21 01:04 | -33.93899 | 150.91214 | 6893 ft | 291 kts | 2° |
| 2026-04-21 01:04 | -33.91882 | 150.91275 | 6660 ft | 289 kts | 3° |
| 2026-04-21 01:04 | -33.89902 | 150.91332 | 6485 ft | 288 kts | 2° |
| 2026-04-21 01:05 | -33.87896 | 150.91386 | 6318 ft | 288 kts | 2° |
| 2026-04-21 01:05 | -33.85900 | 150.91432 | 6130 ft | 287 kts | 1° |
| 2026-04-21 01:05 | -33.83883 | 150.91239 | 5951 ft | 287 kts | 354° |
| 2026-04-21 01:05 | -33.81927 | 150.90928 | 5777 ft | 287 kts | 353° |
| 2026-04-21 01:06 | -33.79957 | 150.90591 | 5598 ft | 286 kts | 353° |
| 2026-04-21 01:06 | -33.77992 | 150.90253 | 5424 ft | 285 kts | 352° |
| 2026-04-21 01:06 | -33.76030 | 150.89918 | 5250 ft | 283 kts | 352° |
| 2026-04-21 01:06 | -33.74075 | 150.89585 | 5072 ft | 284 kts | 353° |
| 2026-04-21 01:07 | -33.72119 | 150.89251 | 4909 ft | 283 kts | 353° |
| 2026-04-21 01:07 | -33.70165 | 150.88916 | 4785 ft | 283 kts | 353° |
| 2026-04-21 01:07 | -33.68217 | 150.88582 | 4651 ft | 283 kts | 353° |
| 2026-04-21 01:07 | -33.66279 | 150.88247 | 4575 ft | 281 kts | 352° |
| 2026-04-21 01:08 | -33.64335 | 150.87912 | 4503 ft | 282 kts | 353° |
| 2026-04-21 01:08 | -33.62419 | 150.88088 | 4377 ft | 277 kts | 25° |
| 2026-04-21 01:08 | -33.60971 | 150.89506 | 4291 ft | 268 kts | 61° |
| 2026-04-21 01:08 | -33.60434 | 150.91581 | 4234 ft | 260 kts | 86° |
| 2026-04-21 01:09 | -33.60317 | 150.93706 | 4170 ft | 247 kts | 91° |
| 2026-04-21 01:09 | -33.60265 | 150.95673 | 4134 ft | 223 kts | 92° |
| 2026-04-21 01:09 | -33.60222 | 150.97496 | 4087 ft | 214 kts | 92° |
| 2026-04-21 01:09 | -33.60175 | 150.99237 | 4023 ft | 205 kts | 92° |
| 2026-04-21 01:10 | -33.60128 | 151.00951 | 3950 ft | 206 kts | 92° |
| 2026-04-21 01:10 | -33.60162 | 151.02665 | 3848 ft | 203 kts | 106° |
| 2026-04-21 01:10 | -33.60862 | 151.04054 | 3755 ft | 193 kts | 136° |
| 2026-04-21 01:10 | -33.61984 | 151.04920 | 3706 ft | 192 kts | 155° |
| 2026-04-21 01:11 | -33.63189 | 151.05610 | 3691 ft | 193 kts | 155° |
| 2026-04-21 01:11 | -33.64402 | 151.06320 | 3672 ft | 194 kts | 155° |
| 2026-04-21 01:11 | -33.65605 | 151.07038 | 3660 ft | 192 kts | 155° |
| 2026-04-21 01:11 | -33.66812 | 151.07753 | 3628 ft | 195 kts | 154° |
| 2026-04-21 01:12 | -33.68021 | 151.08475 | 3613 ft | 193 kts | 155° |
| 2026-04-21 01:12 | -33.69233 | 151.09196 | 3588 ft | 196 kts | 154° |
| 2026-04-21 01:12 | -33.70442 | 151.09916 | 3453 ft | 188 kts | 155° |
| 2026-04-21 01:12 | -33.71582 | 151.10592 | 3306 ft | 180 kts | 154° |
| 2026-04-21 01:13 | -33.72691 | 151.11253 | 3192 ft | 176 kts | 154° |
| 2026-04-21 01:13 | -33.73782 | 151.11905 | 3078 ft | 174 kts | 155° |
| 2026-04-21 01:13 | -33.74888 | 151.12496 | 2972 ft | 174 kts | 165° |
| 2026-04-21 01:13 | -33.76070 | 151.12773 | 2991 ft | 169 kts | 168° |
| 2026-04-21 01:14 | -33.77149 | 151.13061 | 2982 ft | 153 kts | 168° |
| 2026-04-21 01:14 | -33.78201 | 151.13334 | 3004 ft | 157 kts | 168° |
| 2026-04-21 01:14 | -33.79265 | 151.13613 | 2812 ft | 154 kts | 168° |
| 2026-04-21 01:14 | -33.80321 | 151.13887 | 2600 ft | 155 kts | 169° |
| 2026-04-21 01:15 | -33.81349 | 151.14154 | 2407 ft | 148 kts | 168° |
| 2026-04-21 01:15 | -33.82371 | 151.14423 | 2218 ft | 149 kts | 169° |
| 2026-04-21 01:15 | -33.83383 | 151.14684 | 2007 ft | 146 kts | 169° |
| 2026-04-21 01:15 | -33.84386 | 151.14947 | 1798 ft | 148 kts | 169° |
| 2026-04-21 01:16 | -33.85376 | 151.15203 | 1584 ft | 140 kts | 169° |
| 2026-04-21 01:16 | -33.86348 | 151.15456 | 1396 ft | 145 kts | 170° |
| 2026-04-21 01:16 | -33.87308 | 151.15699 | 1215 ft | 137 kts | 170° |
| 2026-04-21 01:16 | -33.88233 | 151.15942 | 1034 ft | 141 kts | 170° |
| 2026-04-21 01:17 | -33.89213 | 151.16193 | 842 ft | 142 kts | 169° |
| 2026-04-21 01:17 | -33.90163 | 151.16448 | 627 ft | 141 kts | 166° |
| 2026-04-21 01:17 | -33.91118 | 151.16712 | 470 ft | 140 kts | 168° |
| 2026-04-21 01:17 | -33.92050 | 151.16944 | 236 ft | 136 kts | 169° |
| 2026-04-21 01:18 | -33.92983 | 151.17178 | 95 ft | 134 kts | 171° |
| 2026-04-21 01:18 | -33.93784 | 151.17379 | 34 ft | 95 kts | 168° |
| 2026-04-21 01:18 | -33.94311 | 151.17516 | 36 ft | 60 kts | 168° |
| 2026-04-21 01:18 | -33.94619 | 151.17592 | 36 ft | 39 kts | 168° |
| 2026-04-21 01:19 | -33.94868 | 151.17638 | 35 ft | 34 kts | 178° |
| 2026-04-21 01:19 | -33.95077 | 151.17629 | 34 ft | 19 kts | 189° |
| 2026-04-21 01:19 | -33.95144 | 151.17569 | 35 ft | 7 kts | 270° |
| 2026-04-21 01:19 | -33.95137 | 151.17546 | 35 ft | 4 kts | 293° |
| 2026-04-21 01:20 | -33.95122 | 151.17524 | 34 ft | 3 kts | 328° |
| 2026-04-21 01:20 | -33.95037 | 151.17501 | 35 ft | 20 kts | 348° |
| 2026-04-21 01:20 | -33.94894 | 151.17463 | 35 ft | 22 kts | 347° |
| 2026-04-21 01:20 | -33.94757 | 151.17429 | 36 ft | 18 kts | 347° |
| 2026-04-21 01:21 | -33.94630 | 151.17396 | 36 ft | 20 kts | 347° |
| 2026-04-21 01:21 | -33.94494 | 151.17362 | 36 ft | 21 kts | 349° |
| 2026-04-21 01:21 | -33.94366 | 151.17328 | 36 ft | 15 kts | 347° |
| 2026-04-21 01:21 | -33.94252 | 151.17297 | 35 ft | 18 kts | 348° |
| 2026-04-21 01:22 | -33.94124 | 151.17264 | 34 ft | 17 kts | 347° |
| 2026-04-21 01:22 | -33.94005 | 151.17230 | 35 ft | 16 kts | 334° |
| 2026-04-21 01:22 | -33.93991 | 151.17143 | 35 ft | 10 kts | 257° |
| 2026-04-21 01:22 | -33.94010 | 151.17059 | 35 ft | 11 kts | 253° |
| 2026-04-21 01:23 | -33.94032 | 151.16963 | 35 ft | 12 kts | 253° |
| 2026-04-21 01:23 | -33.94056 | 151.16866 | 36 ft | 13 kts | 255° |
| 2026-04-21 01:23 | -33.94082 | 151.16756 | 36 ft | 14 kts | 253° |
| 2026-04-21 01:23 | -33.94111 | 151.16634 | 36 ft | 16 kts | 255° |
| 2026-04-21 01:24 | -33.94133 | 151.16517 | 36 ft | 12 kts | 269° |
| 2026-04-21 01:24 | -33.94120 | 151.16491 | 34 ft | 2 kts | 328° |
| 2026-04-21 01:24 | -33.94068 | 151.16469 | 36 ft | 5 kts | 335° |
| 2026-04-21 01:24 | -33.94048 | 151.16465 | 36 ft | 4 kts | 349° |
| 2026-04-21 01:25 | -33.94041 | 151.16463 | 36 ft | 0 kts | 346° |